Time;durP1;ratioP1;P1;durP2;ratioP2;P2;SDS_P1;SDS_P2;PMS_P1;PMS_P2;Temp;Humidity;BMP_temperature;BMP_pressure;BME280_temperature;BME280_humidity;BME280_pressure;Samples;Min_cycle;Max_cycle;Signal;HPM_P1;HPM_P2
2022/09/30 00:13:05;;;;;;;;;;;;;;;15.16;77.83;98711.47;4474592;28;35251;-92
2022/09/30 00:15:41;;;;;;;;;;;;;;;15.03;77.99;98695.53;4225773;33;33302;-90
2022/09/30 00:18:10;;;;;;;;;;;;;;;15.20;77.29;98689.50;4231951;33;34440;-90
2022/09/30 00:20:39;;;;;;;;;;;;;;;15.23;77.46;98696.34;4231306;33;34755;-90
2022/09/30 00:23:08;;;;;;;;;;;;;;;15.45;76.30;98696.16;4226165;33;34241;-90
2022/09/30 00:25:36;;;;;;;;;;;;;;;15.19;77.67;98695.66;4219399;33;33664;-89
2022/09/30 00:28:11;;;;;;;;;;;;;;;15.41;77.02;98697.22;4218150;33;34553;-90
2022/09/30 00:30:43;;;;;;;;;;;;;;;15.41;77.35;98692.84;4218375;33;34118;-89
2022/09/30 00:33:12;;;;;;;;;;;;;;;15.37;77.41;98688.69;4235905;33;34005;-89
2022/09/30 00:35:41;;;;;;;;;;;;;;;15.38;77.41;98687.75;4215834;33;32626;-89
2022/09/30 00:38:12;;;;;;;;;;;;;;;15.46;76.77;98680.38;4232822;33;32983;-90
2022/09/30 00:40:42;;;;;;;;;;;;;;;15.47;76.62;98682.09;4229906;33;33408;-90
2022/09/30 00:43:15;;;;;;;;;;;;;;;15.28;78.07;98678.69;4227348;33;34454;-90
2022/09/30 00:45:47;;;;;;;;;;;;;;;15.42;77.41;98678.88;4227591;33;34677;-90
2022/09/30 00:48:16;;;;;;;;;;;;;;;15.18;78.29;98675.69;4215384;33;35007;-90
2022/09/30 00:50:48;;;;;;;;;;;;;;;15.34;77.99;98675.75;4219627;33;34560;-89
2022/09/30 00:53:18;;;;;;;;;;;;;;;15.30;78.20;98675.06;4216935;33;34795;-88
2022/09/30 00:55:51;;;;;;;;;;;;;;;15.39;77.54;98667.69;4237029;33;34628;-91
2022/09/30 00:58:23;;;;;;;;;;;;;;;15.58;77.09;98669.34;4228568;33;32063;-90
2022/09/30 01:00:56;;;;;;;;;;;;;;;15.46;77.72;98666.47;4230818;33;33544;-90
2022/09/30 01:03:25;;;;;;;;;;;;;;;15.49;77.67;98672.41;4232163;33;34039;-89
2022/09/30 01:06:01;;;;;;;;;;;;;;;15.55;77.36;98673.88;4226736;33;34037;-89
2022/09/30 01:08:38;;;;;;;;;;;;;;;15.60;77.19;98674.47;4227625;33;33258;-90
2022/09/30 01:11:06;;;;;;;;;;;;;;;15.56;77.20;98680.81;4230623;33;33463;-89
2022/09/30 01:13:37;;;;;;;;;;;;;;;15.55;77.48;98676.47;4232194;33;33679;-89
2022/09/30 01:16:08;;;;;;;;;;;;;;;15.75;76.72;98676.38;4214276;33;35729;-91
2022/09/30 01:18:39;;;;;;;;;;;;;;;15.68;77.13;98679.31;4212875;33;32715;-89
2022/09/30 01:21:10;;;;;;;;;;;;;;;15.72;77.07;98684.34;4224918;33;34645;-89
2022/09/30 01:24:15;;;;;;;;;;;;;;;15.79;76.61;98688.34;4228213;33;34922;-89
2022/09/30 01:27:05;;;;;;;;;;;;;;;15.82;76.65;98679.50;4226326;33;34393;-89
2022/09/30 01:29:56;;;;;;;;;;;;;;;15.64;77.21;98662.97;4221028;33;34600;-88
2022/09/30 01:32:34;;;;;;;;;;;;;;;15.64;77.05;98668.19;4218632;33;34840;-89
2022/09/30 01:41:39;;;;;;;;;;;;;;;15.56;77.32;98688.66;4214711;33;33489;-91
2022/09/30 01:44:18;;;;;;;;;;;;;;;15.53;77.54;98687.00;4227050;33;33666;-89
2022/09/30 01:46:50;;;;;;;;;;;;;;;15.75;76.54;98675.50;4226770;33;33525;-91
2022/09/30 01:49:33;;;;;;;;;;;;;;;15.64;77.23;98673.41;4215287;33;34232;-93
2022/09/30 02:07:09;;;;;;;;;;;;;;;15.86;75.95;98651.44;4507316;28;20017;-88
2022/09/30 02:09:41;;;;;;;;;;;;;;;15.67;76.82;98644.50;4210449;34;33632;-90
2022/09/30 02:12:11;;;;;;;;;;;;;;;15.45;77.87;98636.03;4198466;34;34560;-90
2022/09/30 02:14:48;;;;;;;;;;;;;;;15.71;76.81;98640.84;4215949;34;32982;-89
2022/09/30 02:17:18;;;;;;;;;;;;;;;15.72;76.59;98646.91;4213970;34;35009;-89
2022/09/30 02:19:54;;;;;;;;;;;;;;;15.71;76.65;98643.44;4210046;34;35038;-87
2022/09/30 02:22:26;;;;;;;;;;;;;;;15.53;77.57;98655.62;4209515;34;32735;-88
2022/09/30 02:24:56;;;;;;;;;;;;;;;15.62;77.59;98675.25;4214105;33;32770;-87
2022/09/30 02:27:29;;;;;;;;;;;;;;;15.59;77.97;98683.25;4236805;33;34988;-89
2022/09/30 02:29:59;;;;;;;;;;;;;;;15.66;77.81;98673.34;4231300;33;34746;-90
2022/09/30 02:32:32;;;;;;;;;;;;;;;15.65;77.64;98671.62;4213418;33;34486;-91
2022/09/30 02:35:02;;;;;;;;;;;;;;;15.58;78.48;98658.03;4214554;33;33370;-90
2022/09/30 02:37:39;;;;;;;;;;;;;;;15.48;78.76;98643.72;4237184;33;33863;-90
2022/09/30 02:40:13;;;;;;;;;;;;;;;15.43;78.81;98623.03;4229240;33;33942;-91
2022/09/30 02:42:53;;;;;;;;;;;;;;;15.44;79.25;98616.91;4216318;33;33884;-91
2022/09/30 02:49:17;;;;;;;;;;;;;;;15.58;78.18;98632.75;4209488;33;34880;-91
2022/09/30 02:52:14;;;;;;;;;;;;;;;15.66;78.28;98634.97;4212705;33;33534;-90
2022/09/30 02:54:50;;;;;;;;;;;;;;;15.65;78.61;98625.41;4219929;33;35185;-89
2022/09/30 02:57:20;;;;;;;;;;;;;;;15.56;78.92;98618.06;4238981;33;33983;-89
2022/09/30 02:59:49;;;;;;;;;;;;;;;15.85;77.56;98619.22;4245890;33;35077;-89
2022/09/30 03:02:19;;;;;;;;;;;;;;;15.70;77.83;98618.22;4239175;33;34063;-89
2022/09/30 03:04:48;;;;;;;;;;;;;;;15.67;78.48;98617.50;4243002;33;33829;-88
2022/09/30 03:07:20;;;;;;;;;;;;;;;15.70;78.19;98612.13;4220899;33;33525;-87
2022/09/30 03:09:56;;;;;;;;;;;;;;;15.71;77.93;98617.31;4216120;34;31835;-88
2022/09/30 03:12:26;;;;;;;;;;;;;;;15.71;78.00;98612.06;4226363;33;34085;-87
2022/09/30 03:15:04;;;;;;;;;;;;;;;15.90;77.53;98611.09;4218937;33;33966;-88
2022/09/30 03:17:38;;;;;;;;;;;;;;;16.03;76.72;98601.69;4229652;33;32917;-88
2022/09/30 03:20:17;;;;;;;;;;;;;;;15.95;77.13;98609.13;4210960;33;35210;-87
2022/09/30 03:22:51;;;;;;;;;;;;;;;16.05;76.76;98614.72;4218420;33;34748;-89
2022/09/30 03:25:24;;;;;;;;;;;;;;;15.87;77.45;98616.50;4223514;33;33076;-88
2022/09/30 03:27:55;;;;;;;;;;;;;;;16.00;77.27;98633.25;4216563;33;33858;-90
2022/09/30 03:30:37;;;;;;;;;;;;;;;15.81;77.90;98638.59;4217584;33;32852;-88
2022/09/30 03:33:08;;;;;;;;;;;;;;;16.03;77.25;98637.50;4211029;33;33421;-90
2022/09/30 03:35:40;;;;;;;;;;;;;;;15.76;78.77;98633.59;4215778;34;33734;-87
2022/09/30 03:38:22;;;;;;;;;;;;;;;15.82;78.24;98637.66;4208853;33;33439;-86
2022/09/30 03:41:04;;;;;;;;;;;;;;;15.70;78.82;98633.91;4223427;33;34420;-89
2022/09/30 03:43:42;;;;;;;;;;;;;;;15.91;78.29;98637.19;4219373;33;34314;-87
2022/09/30 03:46:13;;;;;;;;;;;;;;;15.67;79.16;98636.66;4216639;33;34653;-86
2022/09/30 03:48:42;;;;;;;;;;;;;;;15.93;78.01;98643.19;4221059;33;33574;-85
2022/09/30 03:51:11;;;;;;;;;;;;;;;15.78;78.63;98630.91;4218750;33;34788;-85
2022/09/30 03:53:41;;;;;;;;;;;;;;;15.54;79.78;98622.53;4211623;33;33948;-86
2022/09/30 03:56:11;;;;;;;;;;;;;;;15.67;79.37;98630.56;4215471;33;34181;-87
2022/09/30 03:58:43;;;;;;;;;;;;;;;15.83;78.70;98635.91;4214336;33;32229;-86
2022/09/30 04:01:17;;;;;;;;;;;;;;;15.69;79.34;98633.97;4221430;33;33997;-86
2022/09/30 04:03:46;;;;;;;;;;;;;;;15.90;78.38;98634.63;4213482;33;34825;-85
2022/09/30 04:06:15;;;;;;;;;;;;;;;16.01;77.50;98634.94;4211996;33;33860;-86
2022/09/30 04:08:47;;;;;;;;;;;;;;;15.79;78.22;98635.22;4211764;33;33526;-86
2022/09/30 04:11:17;;;;;;;;;;;;;;;15.71;78.79;98643.44;4221735;33;34281;-86
2022/09/30 04:13:47;;;;;;;;;;;;;;;15.88;78.26;98641.75;4222305;33;33820;-86
2022/09/30 04:16:16;;;;;;;;;;;;;;;15.66;79.22;98637.59;4219539;33;34776;-85
2022/09/30 04:18:51;;;;;;;;;;;;;;;15.90;77.96;98642.50;4215912;33;34704;-85
2022/09/30 04:21:27;;;;;;;;;;;;;;;15.68;79.22;98637.47;4213315;33;33131;-85
2022/09/30 04:23:57;;;;;;;;;;;;;;;15.89;78.37;98636.41;4223393;33;33802;-85
2022/09/30 04:26:33;;;;;;;;;;;;;;;15.91;78.24;98644.19;4223412;33;34576;-85
2022/09/30 04:29:10;;;;;;;;;;;;;;;15.82;78.14;98644.66;4206715;34;33516;-85
2022/09/30 04:31:38;;;;;;;;;;;;;;;15.90;78.27;98642.50;4211476;34;35411;-84
2022/09/30 04:34:09;;;;;;;;;;;;;;;15.98;77.78;98645.56;4214381;33;34319;-86
2022/09/30 04:36:37;;;;;;;;;;;;;;;15.95;77.73;98653.59;4226520;33;34040;-86
2022/09/30 04:39:08;;;;;;;;;;;;;;;15.91;78.08;98665.13;4210976;34;32225;-86
2022/09/30 04:41:39;;;;;;;;;;;;;;;15.94;78.10;98663.19;4210745;34;33225;-84
2022/09/30 04:44:12;;;;;;;;;;;;;;;15.86;78.51;98673.19;4213274;34;33684;-86
2022/09/30 04:46:42;;;;;;;;;;;;;;;15.89;78.66;98672.19;4221140;33;34052;-86
2022/09/30 04:49:14;;;;;;;;;;;;;;;15.98;77.91;98680.41;4214624;33;34513;-85
2022/09/30 04:51:44;;;;;;;;;;;;;;;16.03;77.33;98681.97;4213543;33;33904;-86
2022/09/30 04:54:15;;;;;;;;;;;;;;;16.05;77.47;98691.41;4217470;33;34965;-86
2022/09/30 04:56:45;;;;;;;;;;;;;;;15.86;78.55;98682.81;4220336;33;34617;-86
2022/09/30 04:59:13;;;;;;;;;;;;;;;15.93;78.21;98685.03;4220227;33;31885;-87
2022/09/30 05:01:43;;;;;;;;;;;;;;;15.88;78.44;98686.22;4213874;33;35029;-86
2022/09/30 05:04:12;;;;;;;;;;;;;;;15.98;78.21;98682.19;4221823;33;33804;-86
2022/09/30 05:06:44;;;;;;;;;;;;;;;16.11;77.63;98680.63;4220727;33;34702;-87
2022/09/30 05:09:13;;;;;;;;;;;;;;;16.09;77.46;98689.47;4215958;33;32731;-86
2022/09/30 05:11:46;;;;;;;;;;;;;;;15.99;78.22;98697.81;4225890;33;33240;-86
2022/09/30 05:14:21;;;;;;;;;;;;;;;16.09;77.82;98690.34;4222492;33;34962;-86
2022/09/30 05:16:50;;;;;;;;;;;;;;;16.13;77.81;98688.41;4226531;33;33723;-88
2022/09/30 05:19:20;;;;;;;;;;;;;;;16.05;77.87;98691.41;4217025;33;33387;-87
2022/09/30 05:21:49;;;;;;;;;;;;;;;16.05;78.06;98685.34;4218151;33;33867;-86
2022/09/30 05:24:21;;;;;;;;;;;;;;;16.34;76.78;98689.91;4212178;33;34227;-88
2022/09/30 05:26:52;;;;;;;;;;;;;;;16.24;77.40;98685.22;4225991;33;35013;-88
2022/09/30 05:29:27;;;;;;;;;;;;;;;16.25;77.62;98700.84;4220905;33;32986;-87
2022/09/30 05:31:56;;;;;;;;;;;;;;;16.14;78.22;98697.94;4218632;33;33512;-87
2022/09/30 05:34:25;;;;;;;;;;;;;;;16.17;78.30;98709.09;4216854;33;33986;-88
2022/09/30 05:36:54;;;;;;;;;;;;;;;16.36;77.10;98714.22;4224608;33;34757;-87
2022/09/30 05:39:29;;;;;;;;;;;;;;;16.20;77.73;98708.94;4218388;33;34041;-88
2022/09/30 05:41:59;;;;;;;;;;;;;;;16.17;78.38;98708.25;4215931;33;34421;-89
2022/09/30 05:44:29;;;;;;;;;;;;;;;16.17;78.22;98709.09;4213210;33;34137;-88
2022/09/30 05:46:58;;;;;;;;;;;;;;;16.23;78.16;98705.31;4218166;33;34077;-90
2022/09/30 05:49:29;;;;;;;;;;;;;;;16.28;78.11;98712.91;4210462;33;34492;-91
2022/09/30 05:51:58;;;;;;;;;;;;;;;16.28;77.95;98705.91;4207024;34;33605;-90
2022/09/30 05:54:32;;;;;;;;;;;;;;;16.21;78.13;98715.00;4228411;33;34424;-90
2022/09/30 05:57:02;;;;;;;;;;;;;;;16.29;77.64;98709.41;4227736;33;34891;-90
2022/09/30 05:59:33;;;;;;;;;;;;;;;16.30;77.85;98708.47;4217570;33;32948;-88
2022/09/30 06:02:02;;;;;;;;;;;;;;;16.25;77.82;98708.69;4211068;33;34862;-88
2022/09/30 06:04:33;;;;;;;;;;;;;;;16.15;78.51;98710.09;4214092;33;33975;-87
2022/09/30 06:07:02;;;;;;;;;;;;;;;16.17;78.55;98714.34;4212454;33;33900;-87
2022/09/30 06:09:46;;;;;;;;;;;;;;;16.20;78.50;98716.78;4216600;33;34541;-87
2022/09/30 06:12:17;;;;;;;;;;;;;;;16.10;78.81;98712.97;4214467;33;34900;-89
2022/09/30 06:14:47;;;;;;;;;;;;;;;16.27;78.38;98714.69;4214192;33;33815;-90
2022/09/30 06:19:50;;;;;;;;;;;;;;;16.33;77.89;98718.75;4209988;33;33953;-90
2022/09/30 06:22:22;;;;;;;;;;;;;;;16.20;78.51;98713.31;4238261;33;32404;-88
2022/09/30 06:24:51;;;;;;;;;;;;;;;16.33;77.85;98719.63;4207289;33;34592;-89
2022/09/30 06:27:27;;;;;;;;;;;;;;;16.46;77.42;98726.84;4227838;33;37230;-90
2022/09/30 06:46:12;;;;;;;;;;;;;;;16.42;78.16;98757.53;4153156;34;34677;-91
2022/09/30 06:49:27;;;;;;;;;;;;;;;16.40;78.56;98746.31;4137995;34;35186;-90
2022/09/30 06:52:13;;;;;;;;;;;;;;;16.70;76.95;98754.34;4141597;34;35493;-88
2022/09/30 06:54:45;;;;;;;;;;;;;;;16.48;78.17;98769.47;4176646;34;33628;-88
2022/09/30 06:57:15;;;;;;;;;;;;;;;16.47;78.42;98773.03;4168475;34;33860;-88
2022/09/30 06:59:46;;;;;;;;;;;;;;;16.46;78.60;98780.03;4173549;34;34740;-88
2022/09/30 07:02:18;;;;;;;;;;;;;;;16.60;78.39;98774.94;4163429;34;33488;-88
2022/09/30 07:04:50;;;;;;;;;;;;;;;16.55;78.94;98774.31;4166798;34;34325;-86
2022/09/30 07:07:21;;;;;;;;;;;;;;;16.58;78.57;98770.69;4158493;34;33001;-86
2022/09/30 07:09:53;;;;;;;;;;;;;;;16.67;78.40;98782.44;4168998;34;32809;-87
2022/09/30 07:12:35;;;;;;;;;;;;;;;16.74;77.90;98781.19;4184183;34;34612;-86
2022/09/30 07:15:04;;;;;;;;;;;;;;;16.68;78.19;98779.75;4222948;33;33984;-87
2022/09/30 07:17:36;;;;;;;;;;;;;;;16.83;77.63;98789.44;4222795;33;34666;-86
2022/09/30 07:20:04;;;;;;;;;;;;;;;16.71;78.15;98791.84;4217944;33;33785;-87
2022/09/30 07:22:37;;;;;;;;;;;;;;;16.77;78.05;98796.78;4222330;33;33816;-86
2022/09/30 07:25:05;;;;;;;;;;;;;;;16.81;78.19;98798.31;4223809;33;32937;-86
2022/09/30 07:27:34;;;;;;;;;;;;;;;16.80;78.29;98794.00;4211419;33;34998;-88
2022/09/30 07:30:05;;;;;;;;;;;;;;;16.85;78.25;98792.81;4229565;33;34765;-86
2022/09/30 07:32:42;;;;;;;;;;;;;;;16.79;78.71;98800.16;4225292;33;34888;-85
2022/09/30 07:35:10;;;;;;;;;;;;;;;16.95;77.84;98811.53;4215933;33;32376;-86
2022/09/30 07:37:43;;;;;;;;;;;;;;;16.85;78.10;98810.31;4223878;33;33890;-86
2022/09/30 07:40:11;;;;;;;;;;;;;;;16.88;77.79;98810.16;4221884;33;34296;-86
2022/09/30 07:42:44;;;;;;;;;;;;;;;16.70;78.58;98811.94;4228486;33;34197;-86
2022/09/30 07:45:14;;;;;;;;;;;;;;;16.77;78.86;98815.94;4207285;33;31163;-86
2022/09/30 07:47:46;;;;;;;;;;;;;;;16.94;78.15;98819.47;4223659;33;33595;-85
2022/09/30 07:50:44;;;;;;;;;;;;;;;16.77;78.84;98818.56;4223976;33;36030;-86
2022/09/30 07:53:16;;;;;;;;;;;;;;;16.77;78.77;98818.56;4221842;33;33807;-85
2022/09/30 07:55:47;;;;;;;;;;;;;;;16.84;78.42;98829.56;4210152;33;33660;-86
2022/09/30 07:58:16;;;;;;;;;;;;;;;16.93;78.02;98834.34;4212528;33;33848;-85
2022/09/30 08:00:47;;;;;;;;;;;;;;;16.93;78.00;98830.88;4212683;33;34728;-84
2022/09/30 08:03:21;;;;;;;;;;;;;;;16.84;78.99;98835.69;4223303;33;34783;-85
2022/09/30 08:05:55;;;;;;;;;;;;;;;16.95;78.72;98832.47;4229342;33;33195;-85
2022/09/30 08:08:24;;;;;;;;;;;;;;;17.04;78.28;98833.78;4227063;33;33934;-86
2022/09/30 08:10:52;;;;;;;;;;;;;;;16.99;78.37;98830.56;4221664;33;34043;-85
2022/09/30 08:13:22;;;;;;;;;;;;;;;17.00;78.50;98840.94;4211894;33;34639;-85
2022/09/30 08:15:58;;;;;;;;;;;;;;;17.00;78.70;98840.09;4219255;33;33115;-84
2022/09/30 08:18:28;;;;;;;;;;;;;;;17.06;78.09;98845.03;4210274;33;34855;-84
2022/09/30 08:20:59;;;;;;;;;;;;;;;17.00;78.33;98851.41;4217983;33;33724;-85
2022/09/30 08:23:28;;;;;;;;;;;;;;;17.10;77.67;98861.41;4219804;33;33964;-84
2022/09/30 08:26:06;;;;;;;;;;;;;;;16.99;78.26;98854.12;4220242;33;32831;-84
2022/09/30 08:28:34;;;;;;;;;;;;;;;17.19;76.90;98867.03;4215466;33;34654;-84
2022/09/30 08:31:06;;;;;;;;;;;;;;;17.03;77.62;98871.38;4222523;33;34118;-83
2022/09/30 08:33:36;;;;;;;;;;;;;;;17.02;78.13;98873.16;4220106;33;33677;-84
2022/09/30 08:36:11;;;;;;;;;;;;;;;16.92;79.22;98876.34;4223449;33;32617;-85
2022/09/30 08:38:41;;;;;;;;;;;;;;;17.09;78.56;98875.47;4216679;33;34358;-85
2022/09/30 08:41:27;;;;;;;;;;;;;;;17.02;79.15;98880.19;4216318;33;35097;-85
2022/09/30 08:43:58;;;;;;;;;;;;;;;16.90;79.08;98889.53;4216852;34;33816;-86
2022/09/30 08:46:30;;;;;;;;;;;;;;;16.99;79.03;98890.81;4208549;34;31633;-85
2022/09/30 08:49:01;;;;;;;;;;;;;;;17.05;78.59;98904.44;4211418;33;33347;-84
2022/09/30 08:51:35;;;;;;;;;;;;;;;17.03;78.68;98897.56;4211880;33;35043;-86
2022/09/30 08:54:13;;;;;;;;;;;;;;;16.93;79.62;98904.22;4218582;33;34490;-84
2022/09/30 08:56:42;;;;;;;;;;;;;;;17.03;79.45;98900.19;4218287;33;33854;-85
2022/09/30 08:59:14;;;;;;;;;;;;;;;17.10;78.59;98903.34;4217445;33;33752;-85
2022/09/30 09:01:43;;;;;;;;;;;;;;;17.18;78.65;98890.69;4203479;33;34854;-85
2022/09/30 09:04:13;;;;;;;;;;;;;;;17.17;79.00;98895.06;4227743;33;33807;-85
2022/09/30 09:06:45;;;;;;;;;;;;;;;17.27;78.43;98898.06;4230830;33;33023;-85
2022/09/30 09:09:20;;;;;;;;;;;;;;;17.27;79.10;98893.66;4222147;33;34741;-84
2022/09/30 09:12:03;;;;;;;;;;;;;;;17.32;80.56;98903.91;4210263;33;32678;-85
2022/09/30 09:14:36;;;;;;;;;;;;;;;17.55;79.01;98905.28;4225086;33;34295;-85
2022/09/30 09:17:14;;;;;;;;;;;;;;;17.68;79.56;98908.94;4215446;33;33147;-86
2022/09/30 09:19:52;;;;;;;;;;;;;;;17.68;79.88;98908.09;4228825;33;33618;-85
2022/09/30 09:22:23;;;;;;;;;;;;;;;17.80;78.69;98917.06;4224580;33;33949;-84
2022/09/30 09:24:54;;;;;;;;;;;;;;;17.88;77.63;98920.16;4226600;33;34445;-85
2022/09/30 09:27:26;;;;;;;;;;;;;;;17.92;77.69;98925.13;4220190;33;33930;-86
2022/09/30 09:30:00;;;;;;;;;;;;;;;17.81;77.52;98927.50;4219911;33;34047;-86
2022/09/30 09:32:35;;;;;;;;;;;;;;;17.76;77.45;98934.75;4217744;34;33937;-87
2022/09/30 09:35:13;;;;;;;;;;;;;;;17.59;78.16;98942.69;4211903;33;34071;-86
2022/09/30 09:40:34;;;;;;;;;;;;;;;17.64;77.90;98951.19;4225216;33;34233;-86
2022/09/30 09:43:06;;;;;;;;;;;;;;;17.53;78.41;98943.88;4207933;33;35008;-85
2022/09/30 09:45:38;;;;;;;;;;;;;;;17.55;78.30;98949.03;4228355;33;34269;-86
2022/09/30 09:48:07;;;;;;;;;;;;;;;17.67;77.15;98946.59;4221247;33;33723;-86
2022/09/30 09:50:42;;;;;;;;;;;;;;;17.46;78.31;98948.59;4222756;33;34893;-87
2022/09/30 09:53:18;;;;;;;;;;;;;;;17.48;78.59;98951.97;4210301;33;35010;-86
2022/09/30 09:55:47;;;;;;;;;;;;;;;17.56;78.59;98954.19;4227576;33;33531;-84
2022/09/30 09:58:16;;;;;;;;;;;;;;;17.85;76.60;98959.66;4223598;33;33034;-86
2022/09/30 10:01:10;;;;;;;;;;;;;;;17.52;78.12;98967.53;4200682;34;34918;-85
2022/09/30 10:03:38;;;;;;;;;;;;;;;17.63;77.09;98963.41;4210164;33;34848;-86
2022/09/30 10:06:13;;;;;;;;;;;;;;;17.53;78.43;98961.38;4221271;33;34476;-85
2022/09/30 10:08:52;;;;;;;;;;;;;;;17.67;78.39;98962.34;4218393;33;32553;-86
2022/09/30 10:11:21;;;;;;;;;;;;;;;17.80;78.08;98964.28;4225687;33;34193;-86
2022/09/30 10:13:53;;;;;;;;;;;;;;;17.91;77.06;98961.97;4229076;33;34516;-86
2022/09/30 10:16:25;;;;;;;;;;;;;;;17.91;77.80;98952.31;4214482;33;34487;-86
2022/09/30 10:18:58;;;;;;;;;;;;;;;17.96;78.12;98965.19;4219854;33;33374;-87
2022/09/30 10:21:29;;;;;;;;;;;;;;;18.08;77.84;98971.53;4222004;33;33453;-86
2022/09/30 10:24:01;;;;;;;;;;;;;;;18.09;78.04;98975.84;4228224;33;35021;-86
2022/09/30 10:26:36;;;;;;;;;;;;;;;18.29;76.55;98969.47;4219875;33;31779;-85
2022/09/30 10:29:21;;;;;;;;;;;;;;;18.26;76.00;98975.75;4217920;33;32462;-86
2022/09/30 10:31:50;;;;;;;;;;;;;;;18.31;75.89;98983.34;4222148;33;33721;-87
2022/09/30 10:34:28;;;;;;;;;;;;;;;18.33;76.65;98992.00;4213600;33;35158;-86
2022/09/30 10:37:00;;;;;;;;;;;;;;;18.43;76.90;98992.31;4226657;33;34351;-85
2022/09/30 10:39:29;;;;;;;;;;;;;;;18.55;77.03;98989.00;4223190;33;34756;-85
2022/09/30 10:42:02;;;;;;;;;;;;;;;18.57;76.97;98989.78;4211889;33;32505;-85
2022/09/30 10:44:31;;;;;;;;;;;;;;;18.83;76.19;99000.59;4227475;33;34485;-85
2022/09/30 10:47:01;;;;;;;;;;;;;;;18.83;74.13;99008.47;4223804;33;34232;-86
2022/09/30 10:49:30;;;;;;;;;;;;;;;18.74;75.49;99008.03;4229524;33;33066;-86
2022/09/30 10:52:14;;;;;;;;;;;;;;;18.79;74.68;99005.16;4225648;33;34531;-85
2022/09/30 10:54:49;;;;;;;;;;;;;;;18.94;74.78;99000.81;4225090;33;33815;-86
2022/09/30 10:57:20;;;;;;;;;;;;;;;18.93;75.19;99007.00;4218406;33;34374;-86
2022/09/30 10:59:59;;;;;;;;;;;;;;;19.09;74.53;99006.97;4221441;33;33238;-85
2022/09/30 11:02:30;;;;;;;;;;;;;;;19.15;74.07;99017.94;4226953;33;34059;-87
2022/09/30 11:05:01;;;;;;;;;;;;;;;19.26;73.76;99014.69;4222130;33;33331;-86
2022/09/30 11:07:33;;;;;;;;;;;;;;;19.22;73.35;99030.75;4225269;33;34323;-86
2022/09/30 11:10:03;;;;;;;;;;;;;;;19.19;72.95;99040.50;4212161;34;32818;-85
2022/09/30 11:12:41;;;;;;;;;;;;;;;19.08;71.55;99053.41;4216287;33;34721;-86
2022/09/30 11:15:15;;;;;;;;;;;;;;;19.05;70.60;99066.75;4217012;34;33814;-87
2022/09/30 11:17:48;;;;;;;;;;;;;;;18.75;72.94;99067.56;4219313;33;33479;-86
2022/09/30 11:20:20;;;;;;;;;;;;;;;18.88;73.74;99074.75;4223741;33;33934;-86
2022/09/30 11:22:54;;;;;;;;;;;;;;;19.02;73.87;99090.59;4223097;33;34522;-87
2022/09/30 11:25:27;;;;;;;;;;;;;;;19.00;72.38;99092.47;4227403;33;34107;-87
2022/09/30 11:28:02;;;;;;;;;;;;;;;19.00;72.09;99097.72;4208860;34;33732;-86
2022/09/30 11:30:32;;;;;;;;;;;;;;;19.29;70.21;99103.06;4212179;34;33565;-86
2022/09/30 11:33:05;;;;;;;;;;;;;;;19.13;71.77;99113.62;4211666;33;33771;-86
2022/09/30 11:35:44;;;;;;;;;;;;;;;18.86;71.88;99116.06;4225213;33;35032;-87
2022/09/30 11:38:28;;;;;;;;;;;;;;;19.09;70.26;99107.72;4216933;33;33537;-87
2022/09/30 11:40:58;;;;;;;;;;;;;;;18.82;70.51;99117.16;4215362;34;33104;-85
2022/09/30 11:43:29;;;;;;;;;;;;;;;18.51;71.29;99119.69;4220728;33;33462;-86
2022/09/30 11:46:13;;;;;;;;;;;;;;;18.55;70.08;99123.81;4214695;34;34072;-86
2022/09/30 11:48:48;;;;;;;;;;;;;;;18.42;72.25;99117.56;4193218;33;783128;-86
2022/09/30 11:51:22;;;;;;;;;;;;;;;18.87;70.82;99128.25;4218829;33;33292;-86
2022/09/30 11:53:54;;;;;;;;;;;;;;;18.81;71.08;99134.69;4223381;33;34582;-86
2022/09/30 11:56:27;;;;;;;;;;;;;;;18.67;71.39;99145.94;4219011;33;34646;-86
2022/09/30 11:59:07;;;;;;;;;;;;;;;18.69;72.61;99145.88;4226031;33;33815;-87
2022/09/30 12:01:37;;;;;;;;;;;;;;;18.94;69.76;99145.38;4215504;33;33175;-87
2022/09/30 12:04:08;;;;;;;;;;;;;;;18.77;70.58;99154.19;4219960;33;34897;-87
2022/09/30 12:06:40;;;;;;;;;;;;;;;18.63;71.15;99148.81;4225869;33;33640;-86
2022/09/30 12:09:18;;;;;;;;;;;;;;;18.75;71.64;99156.06;4211105;33;34057;-87
2022/09/30 12:11:51;;;;;;;;;;;;;;;19.01;71.09;99162.47;4222039;33;33668;-87
2022/09/30 12:14:20;;;;;;;;;;;;;;;19.18;69.13;99159.78;4228072;33;34906;-86
2022/09/30 12:16:50;;;;;;;;;;;;;;;19.21;69.68;99166.62;4205527;33;35500;-87
2022/09/30 12:19:24;;;;;;;;;;;;;;;19.53;68.74;99174.44;4222909;33;34033;-86
2022/09/30 12:21:55;;;;;;;;;;;;;;;19.29;67.95;99167.03;4211070;33;33762;-86
2022/09/30 12:24:28;;;;;;;;;;;;;;;19.52;67.38;99178.00;4226826;33;33790;-86
2022/09/30 12:26:58;;;;;;;;;;;;;;;19.43;67.73;99168.88;4220931;33;35043;-87
2022/09/30 12:32:21;;;;;;;;;;;;;;;19.50;68.12;99182.50;4226939;33;32793;-86
2022/09/30 12:34:53;;;;;;;;;;;;;;;19.57;66.86;99182.06;4226482;33;33770;-86
2022/09/30 12:37:25;;;;;;;;;;;;;;;19.55;66.70;99185.75;4218163;33;35038;-86
2022/09/30 12:40:18;;;;;;;;;;;;;;;19.28;66.99;99183.75;4221651;33;33535;-86
2022/09/30 12:43:00;;;;;;;;;;;;;;;19.21;67.90;99186.81;4220859;33;33328;-85
2022/09/30 12:45:45;;;;;;;;;;;;;;;19.13;67.36;99188.09;4213183;33;35420;-86
2022/09/30 12:48:15;;;;;;;;;;;;;;;18.98;67.35;99194.22;4225606;33;34439;-86
2022/09/30 12:50:54;;;;;;;;;;;;;;;18.72;68.30;99196.44;4219989;33;34590;-86
2022/09/30 12:53:25;;;;;;;;;;;;;;;18.75;69.65;99204.19;4212000;33;33038;-87
2022/09/30 12:55:54;;;;;;;;;;;;;;;18.94;69.24;99208.44;4225192;33;34014;-86
2022/09/30 12:58:25;;;;;;;;;;;;;;;19.08;68.21;99218.22;4227744;33;34336;-86
2022/09/30 13:01:02;;;;;;;;;;;;;;;19.10;68.08;99224.22;4227082;33;34307;-86
2022/09/30 13:03:45;;;;;;;;;;;;;;;19.05;67.09;99221.00;4209783;33;31272;-87
2022/09/30 13:06:18;;;;;;;;;;;;;;;18.92;68.28;99223.47;4222697;33;34133;-87
2022/09/30 13:09:03;;;;;;;;;;;;;;;18.85;67.88;99219.50;4203348;33;34242;-87
2022/09/30 13:11:35;;;;;;;;;;;;;;;18.66;69.39;99216.97;4216812;33;35260;-87
2022/09/30 13:14:12;;;;;;;;;;;;;;;18.76;68.73;99216.41;4223482;33;32990;-87
2022/09/30 13:17:03;;;;;;;;;;;;;;;18.75;68.92;99212.06;4221487;33;33567;-86
2022/09/30 13:19:33;;;;;;;;;;;;;;;18.55;69.24;99225.41;4213890;33;35039;-86
2022/09/30 13:22:29;;;;;;;;;;;;;;;18.33;69.67;99237.06;4214850;33;34105;-87
2022/09/30 13:25:11;;;;;;;;;;;;;;;18.17;70.82;99236.19;4216239;33;33057;-86
2022/09/30 13:27:41;;;;;;;;;;;;;;;18.20;70.73;99250.94;4217116;33;34467;-87
2022/09/30 13:30:35;;;;;;;;;;;;;;;18.20;70.17;99262.25;4208629;33;31678;-86
2022/09/30 13:33:22;;;;;;;;;;;;;;;18.16;70.14;99260.72;4219378;33;34822;-87
2022/09/30 13:35:57;;;;;;;;;;;;;;;18.21;69.65;99266.56;4225647;33;33142;-87
2022/09/30 13:38:36;;;;;;;;;;;;;;;18.23;69.89;99275.22;4214912;33;34490;-87
2022/09/30 13:41:06;;;;;;;;;;;;;;;17.92;71.16;99284.66;4225119;33;33967;-86
2022/09/30 13:43:39;;;;;;;;;;;;;;;18.19;70.14;99284.19;4212789;33;34645;-87
2022/09/30 13:46:11;;;;;;;;;;;;;;;18.08;70.44;99289.16;4227499;33;33622;-87
2022/09/30 13:48:48;;;;;;;;;;;;;;;18.19;70.58;99276.31;4211255;33;33566;-87
2022/09/30 13:51:17;;;;;;;;;;;;;;;18.26;69.12;99279.47;4215438;33;33404;-87
2022/09/30 13:53:50;;;;;;;;;;;;;;;18.14;69.45;99273.06;4226704;33;33894;-87
2022/09/30 13:56:20;;;;;;;;;;;;;;;17.98;70.68;99269.53;4222131;33;33147;-87
2022/09/30 13:58:54;;;;;;;;;;;;;;;18.20;71.37;99270.16;4220994;33;34210;-86
2022/09/30 14:01:28;;;;;;;;;;;;;;;18.63;69.17;99262.66;4213247;33;35177;-87
2022/09/30 14:04:08;;;;;;;;;;;;;;;18.75;69.05;99267.25;4224218;33;34346;-87
2022/09/30 14:06:40;;;;;;;;;;;;;;;19.08;66.90;99255.00;4223834;33;33305;-87
2022/09/30 14:09:23;;;;;;;;;;;;;;;18.81;66.11;99257.38;4230617;33;34958;-87
2022/09/30 14:12:11;;;;;;;;;;;;;;;18.55;67.41;99251.69;4214654;33;36255;-87
2022/09/30 14:14:52;;;;;;;;;;;;;;;18.82;66.38;99251.16;4217978;33;34197;-87
2022/09/30 14:17:26;;;;;;;;;;;;;;;18.70;66.92;99252.66;4216176;33;33322;-87
2022/09/30 14:19:58;;;;;;;;;;;;;;;18.74;66.02;99262.91;4227297;33;33895;-86
2022/09/30 14:22:28;;;;;;;;;;;;;;;18.50;66.86;99275.56;4225195;33;34897;-87